Time;durP1;ratioP1;P1;durP2;ratioP2;P2;SDS_P1;SDS_P2;PMS_P1;PMS_P2;Temp;Humidity;BMP_temperature;BMP_pressure;BME280_temperature;BME280_humidity;BME280_pressure;Samples;Min_cycle;Max_cycle;Signal;HPM_P1;HPM_P2
2023/10/25 00:00:09;;;;;;;3.83;2.03;;;;;;;17.16;52.81;93072.28;528130;28;856;-41
2023/10/25 00:00:24;;;;;;;7.22;2.53;;;;;;;17.14;52.69;93081.25;528166;28;877;-41
2023/10/25 00:00:40;;;;;;;7.73;2.53;;;;;;;17.14;52.58;93070.09;528077;28;943;-41
2023/10/25 00:00:55;;;;;;;4.97;2.17;;;;;;;17.15;52.82;93073.63;528177;28;793;-41
2023/10/25 00:01:10;;;;;;;5.43;1.90;;;;;;;17.10;52.73;93057.94;528154;28;868;-41
2023/10/25 00:01:26;;;;;;;8.10;2.07;;;;;;;17.13;52.72;93065.81;528110;28;829;-41
2023/10/25 00:01:41;;;;;;;6.63;2.10;;;;;;;17.12;52.76;93060.84;528184;28;770;-41
2023/10/25 00:01:57;;;;;;;6.93;2.00;;;;;;;17.10;52.84;93060.72;528001;28;1973;-41
2023/10/25 00:02:12;;;;;;;6.33;2.00;;;;;;;17.09;52.87;93057.22;528124;28;892;-41
2023/10/25 00:02:27;;;;;;;3.97;2.13;;;;;;;17.08;52.91;93057.81;528119;28;817;-41
2023/10/25 00:02:43;;;;;;;6.60;2.30;;;;;;;17.03;53.06;93058.88;528159;28;853;-41
2023/10/25 00:02:59;;;;;;;5.87;2.53;;;;;;;17.03;52.92;93056.81;528090;28;1543;-41
2023/10/25 00:03:15;;;;;;;3.78;2.70;;;;;;;17.00;53.07;93054.53;528197;28;836;-41
2023/10/25 00:03:30;;;;;;;4.35;2.85;;;;;;;17.01;53.18;93064.34;528079;28;928;-41
2023/10/25 00:03:46;;;;;;;7.78;3.47;;;;;;;17.01;53.13;93061.53;528143;28;873;-41
2023/10/25 00:04:01;;;;;;;9.70;4.13;;;;;;;17.01;53.15;93061.53;528065;28;880;-42
2023/10/25 00:04:17;;;;;;;12.18;4.55;;;;;;;17.00;53.22;93066.38;528147;28;864;-41
2023/10/25 00:04:32;;;;;;;12.47;4.70;;;;;;;17.00;53.14;93062.88;528173;28;1086;-41
2023/10/25 00:04:47;;;;;;;8.27;4.13;;;;;;;16.93;53.24;93055.44;528128;28;801;-41
2023/10/25 00:05:03;;;;;;;6.88;3.53;;;;;;;16.99;53.16;93064.19;528107;28;1105;-41
2023/10/25 00:05:18;;;;;;;8.87;3.93;;;;;;;16.98;53.25;93063.47;528049;28;790;-41
2023/10/25 00:05:34;;;;;;;8.85;4.00;;;;;;;16.98;53.25;93062.75;528203;28;821;-41
2023/10/25 00:05:49;;;;;;;8.97;3.93;;;;;;;16.98;53.29;93068.34;528066;28;785;-42
2023/10/25 00:06:04;;;;;;;7.63;3.90;;;;;;;16.98;53.40;93065.56;528147;28;1524;-42
2023/10/25 00:06:20;;;;;;;6.80;3.55;;;;;;;16.97;53.34;93067.59;528113;28;929;-41
2023/10/25 00:06:35;;;;;;;9.73;3.23;;;;;;;16.98;53.40;93065.56;528140;28;851;-42
2023/10/25 00:06:51;;;;;;;7.27;3.00;;;;;;;16.97;53.14;93073.19;528082;28;880;-41
2023/10/25 00:07:07;;;;;;;7.18;3.38;;;;;;;16.97;53.28;93069.66;528132;28;884;-41
2023/10/25 00:07:22;;;;;;;7.88;3.38;;;;;;;16.97;53.37;93066.88;528046;28;1092;-41
2023/10/25 00:07:38;;;;;;;7.30;2.90;;;;;;;16.95;53.37;93067.47;528100;28;947;-41
2023/10/25 00:07:53;;;;;;;9.32;2.83;;;;;;;16.93;53.27;93061.03;528138;28;960;-41
2023/10/25 00:08:09;;;;;;;7.73;2.43;;;;;;;16.89;53.28;93066.34;528032;28;912;-42
2023/10/25 00:08:24;;;;;;;7.10;2.20;;;;;;;16.91;53.36;93066.47;528184;28;947;-42
2023/10/25 00:08:39;;;;;;;7.03;2.03;;;;;;;16.93;53.51;93063.81;528121;28;833;-42
2023/10/25 00:08:55;;;;;;;5.03;1.90;;;;;;;16.92;53.46;93065.13;528165;28;832;-41
2023/10/25 00:09:10;;;;;;;4.80;2.17;;;;;;;16.92;53.42;93070.72;528082;28;904;-41
2023/10/25 00:09:25;;;;;;;5.65;2.40;;;;;;;16.92;53.48;93070.72;528081;28;996;-42
2023/10/25 00:09:41;;;;;;;4.50;2.17;;;;;;;16.92;53.43;93065.13;528061;28;876;-42
2023/10/25 00:09:56;;;;;;;3.70;2.10;;;;;;;16.91;53.42;93061.63;528065;28;860;-42
2023/10/25 00:10:12;;;;;;;4.60;2.25;;;;;;;16.90;53.77;93068.53;528156;28;792;-42
2023/10/25 00:10:27;;;;;;;7.43;2.40;;;;;;;16.91;53.71;93070.00;528029;28;865;-41
2023/10/25 00:10:42;;;;;;;9.70;2.33;;;;;;;16.90;53.60;93065.00;528175;28;785;-42
2023/10/25 00:11:05;;;;;;;7.43;2.17;;;;;;;16.88;53.70;93059.31;528072;28;872;-42
2023/10/25 00:11:21;;;;;;;8.18;2.60;;;;;;;16.90;53.73;93065.75;528019;28;1114;-41
2023/10/25 00:11:36;;;;;;;6.50;2.35;;;;;;;16.88;53.76;93062.81;528166;28;798;-41
2023/10/25 00:11:51;;;;;;;4.97;1.98;;;;;;;16.89;53.83;93069.13;528136;28;890;-42
2023/10/25 00:12:07;;;;;;;4.37;2.20;;;;;;;16.89;53.76;93063.56;528101;28;814;-41
2023/10/25 00:12:22;;;;;;;6.13;2.37;;;;;;;16.91;53.88;93066.47;528120;28;943;-41
2023/10/25 00:12:38;;;;;;;6.00;2.45;;;;;;;16.90;53.78;93062.22;528097;28;829;-40
2023/10/25 00:12:53;;;;;;;5.93;3.00;;;;;;;16.88;53.70;93071.19;528130;28;809;-41
2023/10/25 00:13:08;;;;;;;6.27;2.80;;;;;;;16.89;53.79;93061.47;528119;28;996;-42
2023/10/25 00:13:24;;;;;;;6.30;2.78;;;;;;;16.89;53.79;93064.28;528108;28;880;-41
2023/10/25 00:13:39;;;;;;;9.07;2.50;;;;;;;16.89;53.76;93067.06;528044;28;833;-42
2023/10/25 00:13:55;;;;;;;10.73;2.17;;;;;;;16.89;53.79;93064.28;528121;28;936;-42
2023/10/25 00:14:10;;;;;;;6.50;2.37;;;;;;;16.90;53.61;93059.44;528124;28;856;-42
2023/10/25 00:14:27;;;;;;;3.93;2.27;;;;;;;16.89;53.95;93061.47;528061;28;1172;-40
2023/10/25 00:14:42;;;;;;;4.40;2.33;;;;;;;16.89;53.76;93060.78;528129;28;923;-40
2023/10/25 00:14:57;;;;;;;3.83;2.27;;;;;;;16.89;53.96;93066.34;528148;28;802;-41
2023/10/25 00:15:13;;;;;;;4.28;2.10;;;;;;;16.89;53.94;93071.94;528013;28;880;-41
2023/10/25 00:15:28;;;;;;;4.07;2.00;;;;;;;16.88;53.95;93060.03;528115;28;1083;-42
2023/10/25 00:15:44;;;;;;;3.77;1.90;;;;;;;16.89;53.88;93063.56;528180;28;841;-41
2023/10/25 00:16:00;;;;;;;6.55;2.03;;;;;;;16.84;53.94;93057.00;528042;28;840;-41
2023/10/25 00:16:15;;;;;;;6.28;2.25;;;;;;;16.88;53.94;93064.88;525894;28;861;-41
2023/10/25 00:16:30;;;;;;;6.30;2.20;;;;;;;16.87;53.86;93066.94;525814;28;909;-41
2023/10/25 00:16:46;;;;;;;6.60;2.00;;;;;;;16.86;54.22;93067.53;525822;28;939;-41
2023/10/25 00:17:01;;;;;;;5.50;2.33;;;;;;;16.77;54.19;93055.13;525849;28;1638;-41
2023/10/25 00:17:17;;;;;;;8.17;2.30;;;;;;;16.85;54.25;93063.31;525837;28;818;-41
2023/10/25 00:17:32;;;;;;;9.88;2.25;;;;;;;16.83;54.21;93066.69;525919;28;825;-41
2023/10/25 00:17:48;;;;;;;11.20;2.43;;;;;;;16.84;54.28;93061.84;525852;28;868;-40
2023/10/25 00:18:04;;;;;;;13.05;2.53;;;;;;;16.82;54.24;93067.28;526343;28;920;-41
2023/10/25 00:18:19;;;;;;;9.25;2.60;;;;;;;16.80;54.23;93062.31;527959;28;794;-40
2023/10/25 00:18:34;;;;;;;4.27;2.40;;;;;;;16.80;54.29;93064.38;528096;28;893;-40
2023/10/25 00:18:50;;;;;;;3.43;2.30;;;;;;;16.79;54.46;93068.47;528115;28;825;-41
2023/10/25 00:19:05;;;;;;;6.22;2.47;;;;;;;16.79;54.35;93062.91;528123;28;837;-41
2023/10/25 00:19:21;;;;;;;6.57;2.23;;;;;;;16.78;54.39;93064.22;528085;28;800;-41
2023/10/25 00:19:36;;;;;;;5.13;2.28;;;;;;;16.78;54.46;93064.22;528142;28;770;-40
2023/10/25 00:19:52;;;;;;;5.03;2.20;;;;;;;16.77;54.53;93062.75;528137;28;813;-41
2023/10/25 00:20:08;;;;;;;6.57;2.13;;;;;;;16.74;54.44;93059.09;525812;28;860;-41
2023/10/25 00:20:23;;;;;;;6.60;2.23;;;;;;;16.75;54.58;93059.84;525864;28;888;-41
2023/10/25 00:20:38;;;;;;;4.25;2.33;;;;;;;16.76;54.52;93069.69;525820;28;997;-41
2023/10/25 00:20:54;;;;;;;4.50;2.40;;;;;;;16.75;54.78;93066.16;525910;28;856;-40
2023/10/25 00:21:10;;;;;;;5.05;2.38;;;;;;;16.75;54.53;93068.22;525822;28;920;-41
2023/10/25 00:21:25;;;;;;;3.97;2.10;;;;;;;16.72;54.51;93061.06;525926;28;821;-40
2023/10/25 00:21:41;;;;;;;4.07;1.73;;;;;;;16.74;54.72;93066.75;525854;28;1243;-40
2023/10/25 00:21:56;;;;;;;6.40;2.00;;;;;;;16.71;54.57;93057.53;526290;28;1969;-40
2023/10/25 00:22:12;;;;;;;7.68;2.40;;;;;;;16.72;54.74;93058.28;528166;28;854;-40
2023/10/25 00:22:27;;;;;;;7.67;2.60;;;;;;;16.72;54.71;93063.84;528031;28;1063;-41
2023/10/25 00:22:42;;;;;;;5.37;2.37;;;;;;;16.62;54.65;93047.19;528099;28;881;-40
2023/10/25 00:22:58;;;;;;;5.45;2.50;;;;;;;16.70;54.84;93052.56;528153;28;860;-41
2023/10/25 00:23:13;;;;;;;8.53;2.43;;;;;;;16.70;54.78;93049.78;528038;28;901;-41
2023/10/25 00:23:28;;;;;;;7.63;2.20;;;;;;;16.68;54.70;93051.09;528019;28;877;-40
2023/10/25 00:23:44;;;;;;;4.90;2.30;;;;;;;16.68;54.78;93053.88;528155;28;856;-40
2023/10/25 00:23:59;;;;;;;5.73;2.43;;;;;;;16.68;54.76;93059.47;528625;28;1066;-41
2023/10/25 00:24:15;;;;;;;4.40;2.22;;;;;;;16.70;54.61;93050.50;528192;28;857;-41
2023/10/25 00:24:30;;;;;;;4.10;2.10;;;;;;;16.69;54.78;93046.25;529830;28;1232;-41
2023/10/25 00:24:45;;;;;;;6.70;2.30;;;;;;;16.68;54.97;93051.09;530215;28;884;-40
2023/10/25 00:25:01;;;;;;;6.85;2.00;;;;;;;16.66;54.96;93050.97;530217;28;809;-41
2023/10/25 00:25:16;;;;;;;4.37;1.73;;;;;;;16.65;55.02;93046.72;530167;28;789;-41
2023/10/25 00:25:32;;;;;;;3.70;2.15;;;;;;;16.67;54.93;93051.69;530291;28;840;-41
2023/10/25 00:25:48;;;;;;;6.17;2.63;;;;;;;16.68;54.99;93050.34;527903;28;801;-41
2023/10/25 00:26:04;;;;;;;6.28;2.53;;;;;;;16.67;54.99;93046.84;527988;28;925;-41
2023/10/25 00:26:19;;;;;;;5.20;2.20;;;;;;;16.68;54.78;93048.31;527827;28;1020;-40
2023/10/25 00:26:34;;;;;;;4.43;1.93;;;;;;;16.68;55.12;93048.31;528075;28;868;-41
2023/10/25 00:26:50;;;;;;;3.45;1.67;;;;;;;16.68;55.00;93047.56;527960;28;793;-41
2023/10/25 00:27:06;;;;;;;6.60;2.00;;;;;;;16.67;55.02;93052.41;527998;28;852;-41
2023/10/25 00:27:21;;;;;;;6.72;2.13;;;;;;;16.67;55.03;93046.84;527847;28;884;-41
2023/10/25 00:27:37;;;;;;;4.17;2.13;;;;;;;16.64;55.03;93048.06;528416;28;1558;-41
2023/10/25 00:27:52;;;;;;;5.22;2.55;;;;;;;16.63;55.17;93052.16;527937;28;825;-41
2023/10/25 00:28:07;;;;;;;5.67;2.57;;;;;;;16.63;55.18;93054.94;527988;28;793;-41
2023/10/25 00:28:23;;;;;;;5.80;2.50;;;;;;;16.61;55.17;93049.22;525760;28;813;-40
2023/10/25 00:28:38;;;;;;;6.80;2.67;;;;;;;16.56;55.41;93047.53;525884;28;817;-40
2023/10/25 00:28:54;;;;;;;8.53;2.60;;;;;;;16.58;55.33;93050.44;525872;28;864;-41
2023/10/25 00:29:09;;;;;;;6.93;2.28;;;;;;;16.57;55.40;93048.25;525864;28;920;-40
2023/10/25 00:29:25;;;;;;;5.60;2.50;;;;;;;16.33;55.51;93021.56;525880;28;865;-40
2023/10/25 00:29:40;;;;;;;6.10;2.97;;;;;;;16.51;55.41;93048.59;526194;28;951;-40
2023/10/25 00:29:55;;;;;;;5.88;2.63;;;;;;;16.52;55.61;93052.09;526097;28;1415;-41
2023/10/25 00:30:11;;;;;;;7.83;2.37;;;;;;;16.52;55.61;93054.91;526472;28;807;-41
2023/10/25 00:30:27;;;;;;;6.72;2.33;;;;;;;16.51;55.54;93056.94;528407;28;857;-40
2023/10/25 00:30:44;;;;;;;4.53;2.23;;;;;;;16.51;55.46;93054.16;528330;28;962;-41
2023/10/25 00:30:59;;;;;;;3.47;2.10;;;;;;;16.52;55.59;93058.38;528333;28;866;-41
2023/10/25 00:31:14;;;;;;;4.95;2.35;;;;;;;16.50;55.55;93041.53;528488;28;810;-41
2023/10/25 00:31:30;;;;;;;6.03;2.47;;;;;;;16.54;55.52;93055.03;528347;28;806;-41
2023/10/25 00:31:45;;;;;;;5.30;2.40;;;;;;;16.53;55.48;93053.56;528921;27;1082;-40
2023/10/25 00:32:00;;;;;;;5.38;2.47;;;;;;;16.54;55.66;93055.75;530606;27;1101;-40
2023/10/25 00:32:16;;;;;;;5.40;2.23;;;;;;;16.54;55.56;93055.75;530659;27;840;-41
2023/10/25 00:32:31;;;;;;;4.63;2.33;;;;;;;16.54;55.43;93052.97;530629;27;869;-41
2023/10/25 00:32:47;;;;;;;5.32;2.33;;;;;;;16.54;55.52;93061.34;530642;27;861;-40
2023/10/25 00:33:02;;;;;;;5.97;2.07;;;;;;;16.55;55.59;93059.25;530661;27;837;-41
2023/10/25 00:33:17;;;;;;;7.33;2.10;;;;;;;16.54;55.51;93060.59;530677;27;965;-41
2023/10/25 00:33:33;;;;;;;6.88;2.20;;;;;;;16.54;55.51;93052.97;530683;27;852;-40
2023/10/25 00:33:48;;;;;;;8.97;2.43;;;;;;;16.54;55.56;93050.19;530578;27;835;-41
2023/10/25 00:34:04;;;;;;;9.02;2.42;;;;;;;16.52;55.45;93050.03;530682;27;900;-41
2023/10/25 00:34:19;;;;;;;4.67;2.10;;;;;;;16.51;55.50;93042.28;530632;27;837;-41
2023/10/25 00:34:34;;;;;;;3.77;1.90;;;;;;;16.52;55.65;93052.09;530659;27;1634;-41
2023/10/25 00:34:50;;;;;;;4.43;1.98;;;;;;;16.53;55.65;93036.84;530586;27;913;-41
2023/10/25 00:35:06;;;;;;;6.60;2.10;;;;;;;16.53;55.66;93040.34;530739;27;793;-40
2023/10/25 00:35:21;;;;;;;8.00;2.55;;;;;;;16.53;55.58;93037.56;530547;27;847;-40
2023/10/25 00:35:36;;;;;;;7.73;2.53;;;;;;;16.54;55.72;93035.50;530684;27;836;-40
2023/10/25 00:35:52;;;;;;;7.10;1.97;;;;;;;16.53;55.72;93026.41;530606;27;904;-41
2023/10/25 00:36:07;;;;;;;5.22;1.85;;;;;;;16.53;55.75;93029.22;530635;27;849;-40
2023/10/25 00:36:22;;;;;;;3.57;2.23;;;;;;;16.44;55.48;93020.88;530664;27;789;-40
2023/10/25 00:36:38;;;;;;;3.35;2.22;;;;;;;16.51;55.74;93023.50;530696;27;793;-41
2023/10/25 00:36:53;;;;;;;3.07;2.10;;;;;;;16.55;55.59;93023.03;530579;27;955;-41
2023/10/25 00:37:09;;;;;;;4.00;2.27;;;;;;;16.55;55.60;93034.91;530645;27;790;-41
2023/10/25 00:37:24;;;;;;;4.05;2.00;;;;;;;16.58;55.64;93033.00;530672;27;939;-41
2023/10/25 00:37:39;;;;;;;4.30;1.83;;;;;;;16.56;55.56;93030.81;530552;27;916;-41
2023/10/25 00:37:55;;;;;;;5.80;2.17;;;;;;;16.54;55.64;93032.72;530668;27;885;-41
2023/10/25 00:38:10;;;;;;;6.13;2.28;;;;;;;16.57;55.63;93023.16;530687;27;833;-41
2023/10/25 00:38:26;;;;;;;5.30;2.07;;;;;;;16.46;55.58;93016.16;530702;27;965;-41
2023/10/25 00:38:41;;;;;;;3.58;1.98;;;;;;;16.56;55.48;93028.03;530699;27;816;-41
2023/10/25 00:38:56;;;;;;;4.67;2.43;;;;;;;16.55;55.66;93029.34;530679;27;868;-41
2023/10/25 00:39:12;;;;;;;11.70;2.43;;;;;;;16.47;55.71;93019.69;530659;27;891;-41
2023/10/25 00:39:28;;;;;;;12.70;2.20;;;;;;;16.54;55.77;93027.91;530646;27;828;-41
2023/10/25 00:39:43;;;;;;;6.15;2.00;;;;;;;16.55;55.77;93029.34;530651;27;1066;-41
2023/10/25 00:39:59;;;;;;;3.77;1.80;;;;;;;16.55;55.88;93029.34;530566;27;888;-41
2023/10/25 00:40:14;;;;;;;3.90;1.73;;;;;;;16.55;55.71;93032.13;530652;27;842;-40
2023/10/25 00:40:30;;;;;;;3.00;1.63;;;;;;;16.56;55.71;93027.28;530519;27;983;-41
2023/10/25 00:40:45;;;;;;;7.47;2.03;;;;;;;16.53;55.49;93018.06;530720;27;920;-41
2023/10/25 00:41:00;;;;;;;8.02;2.22;;;;;;;16.58;55.66;93030.94;530625;27;777;-40
2023/10/25 00:41:16;;;;;;;4.77;2.03;;;;;;;16.57;55.51;93032.25;530623;27;868;-40
2023/10/25 00:41:31;;;;;;;7.47;2.50;;;;;;;16.58;55.72;93022.56;530577;27;1721;-41
2023/10/25 00:41:46;;;;;;;6.85;2.50;;;;;;;16.57;55.64;93028.72;530684;27;805;-41
2023/10/25 00:42:02;;;;;;;5.33;2.03;;;;;;;16.56;55.65;93025.22;530486;27;1970;-41
2023/10/25 00:42:18;;;;;;;4.63;1.88;;;;;;;16.57;55.59;93021.09;530688;27;828;-41
2023/10/25 00:42:34;;;;;;;5.25;1.90;;;;;;;16.58;55.44;93024.63;530641;27;820;-41
2023/10/25 00:42:49;;;;;;;6.33;2.30;;;;;;;16.57;55.73;93026.69;530645;27;836;-41
2023/10/25 00:43:16;;;;;;;3.92;2.20;;;;;;;16.59;55.63;93023.28;530609;27;1678;-41
2023/10/25 00:43:31;;;;;;;6.80;2.45;;;;;;;16.58;55.50;93019.78;528428;28;880;-40
2023/10/25 00:43:46;;;;;;;5.05;2.25;;;;;;;16.56;55.82;93019.66;528486;28;933;-41
2023/10/25 00:44:02;;;;;;;6.77;2.10;;;;;;;16.55;55.57;93023.75;528437;28;920;-41
2023/10/25 00:44:17;;;;;;;8.00;2.57;;;;;;;16.57;55.66;93023.16;528530;28;785;-41
2023/10/25 00:44:33;;;;;;;6.63;2.35;;;;;;;16.52;55.95;93015.88;528521;28;837;-41
2023/10/25 00:44:48;;;;;;;4.43;2.10;;;;;;;16.59;55.69;93021.22;528520;28;758;-41
2023/10/25 00:45:04;;;;;;;4.43;2.20;;;;;;;16.59;55.59;93021.22;528526;28;897;-41
2023/10/25 00:45:19;;;;;;;5.40;2.10;;;;;;;16.60;55.68;93019.91;528449;28;773;-41
2023/10/25 00:45:34;;;;;;;4.33;2.00;;;;;;;16.60;55.73;93019.91;528462;28;893;-41
2023/10/25 00:45:59;;;;;;;6.05;2.00;;;;;;;16.59;55.67;93017.72;528458;28;866;-41
2023/10/25 00:46:25;;;;;;;10.52;2.40;;;;;;;16.59;55.79;93024.03;528562;28;847;-41
2023/10/25 00:46:40;;;;;;;4.53;2.03;;;;;;;16.61;55.79;93023.44;529020;27;2526;-41
2023/10/25 00:46:55;;;;;;;5.37;2.40;;;;;;;16.59;55.61;93021.22;530718;27;778;-41
2023/10/25 00:47:11;;;;;;;7.13;2.53;;;;;;;16.61;55.59;93020.66;528339;28;861;-41
2023/10/25 00:47:26;;;;;;;6.67;2.20;;;;;;;16.62;55.64;93022.84;528372;28;868;-41
2023/10/25 00:47:43;;;;;;;4.20;1.83;;;;;;;16.62;55.54;93028.41;528433;28;788;-41
2023/10/25 00:47:58;;;;;;;4.30;2.03;;;;;;;16.64;55.58;93030.59;528409;28;848;-41
2023/10/25 00:48:14;;;;;;;4.57;2.10;;;;;;;16.63;55.79;93023.56;528449;28;824;-41
2023/10/25 00:48:29;;;;;;;7.47;2.50;;;;;;;16.63;55.76;93023.56;528274;28;1209;-41
2023/10/25 00:48:48;;;;;;;6.57;2.00;;;;;;;16.63;55.70;93026.34;528451;28;836;-41
2023/10/25 00:49:03;;;;;;;4.30;1.63;;;;;;;16.50;55.67;93008.09;529338;27;884;-41
2023/10/25 00:49:19;;;;;;;6.00;2.03;;;;;;;16.63;55.68;93023.56;530593;27;809;-41
2023/10/25 00:49:34;;;;;;;7.57;2.42;;;;;;;16.63;55.71;93027.06;530653;27;817;-41
2023/10/25 00:49:50;;;;;;;4.90;2.37;;;;;;;16.65;55.89;93018.13;530570;27;853;-41
2023/10/25 00:50:07;;;;;;;4.72;2.15;;;;;;;16.65;55.80;93024.41;530640;27;844;-41
2023/10/25 00:50:22;;;;;;;6.60;2.72;;;;;;;16.67;55.70;93021.03;528304;28;1601;-41
2023/10/25 00:50:38;;;;;;;5.93;2.73;;;;;;;16.68;55.60;93025.28;528366;28;829;-41
2023/10/25 00:50:54;;;;;;;3.97;2.28;;;;;;;16.68;55.60;93023.22;528306;28;1091;-41
2023/10/25 00:51:10;;;;;;;4.43;2.33;;;;;;;16.62;55.60;93010.94;526267;28;828;-41
2023/10/25 00:51:26;;;;;;;3.75;2.05;;;;;;;16.72;55.57;93027.59;524172;28;1086;-41
2023/10/25 00:51:42;;;;;;;5.93;1.98;;;;;;;16.72;55.73;93022.03;524135;28;896;-41
2023/10/25 00:51:58;;;;;;;7.07;2.22;;;;;;;16.73;55.54;93026.25;524129;28;869;-41
2023/10/25 00:52:13;;;;;;;5.22;2.13;;;;;;;16.74;55.62;93024.94;524919;28;876;-41
2023/10/25 00:52:29;;;;;;;5.70;2.40;;;;;;;16.74;55.77;93031.22;524095;28;874;-41
2023/10/25 00:52:44;;;;;;;6.93;2.50;;;;;;;16.75;55.54;93032.69;522132;28;1054;-41
2023/10/25 00:53:00;;;;;;;10.90;2.45;;;;;;;16.76;55.67;93025.06;522080;28;1155;-41
2023/10/25 00:53:15;;;;;;;12.40;2.53;;;;;;;16.76;55.53;93030.66;522716;28;886;-41
2023/10/25 00:53:37;;;;;;;7.55;2.33;;;;;;;16.75;55.31;93024.34;524186;28;857;-41
2023/10/25 00:53:54;;;;;;;8.30;2.30;;;;;;;16.78;55.40;93022.41;524160;28;861;-41
2023/10/25 00:54:09;;;;;;;7.25;2.42;;;;;;;16.79;55.53;93024.59;525519;28;895;-41
2023/10/25 00:54:25;;;;;;;7.07;2.47;;;;;;;16.81;55.46;93029.56;525578;28;982;-41
2023/10/25 00:54:41;;;;;;;4.57;2.53;;;;;;;16.80;55.36;93026.06;524333;28;1098;-41
2023/10/25 00:54:57;;;;;;;3.20;2.15;;;;;;;16.80;55.31;93026.06;525705;28;904;-41
2023/10/25 00:55:12;;;;;;;3.77;2.10;;;;;;;16.82;55.38;93025.47;526221;28;833;-41
2023/10/25 00:55:27;;;;;;;5.30;2.03;;;;;;;16.82;55.34;93025.47;524092;28;766;-41
2023/10/25 00:55:43;;;;;;;6.50;1.83;;;;;;;16.83;55.24;93030.44;524138;28;836;-41
2023/10/25 00:56:00;;;;;;;6.27;2.10;;;;;;;16.84;55.11;93028.38;524174;28;841;-41
2023/10/25 00:56:17;;;;;;;4.80;1.92;;;;;;;16.85;55.40;93027.06;524755;28;893;-41
2023/10/25 00:56:35;;;;;;;3.65;1.98;;;;;;;16.85;55.37;93027.06;526295;28;853;-41
2023/10/25 00:56:51;;;;;;;3.72;2.13;;;;;;;16.83;55.27;93016.50;524063;28;909;-41
2023/10/25 00:57:07;;;;;;;4.82;2.10;;;;;;;16.85;55.22;93021.47;524136;28;798;-40
2023/10/25 00:57:23;;;;;;;6.22;2.40;;;;;;;16.86;55.37;93022.94;525342;28;896;-41
2023/10/25 00:57:38;;;;;;;6.25;2.55;;;;;;;16.86;55.27;93017.34;526188;28;950;-41
2023/10/25 00:57:54;;;;;;;6.37;2.57;;;;;;;16.86;55.31;93017.34;526247;28;853;-41
2023/10/25 00:58:09;;;;;;;5.35;2.45;;;;;;;16.86;55.34;93014.56;526231;28;778;-41
2023/10/25 00:58:25;;;;;;;5.77;2.60;;;;;;;16.65;55.28;92988.16;524091;28;936;-41
2023/10/25 00:58:43;;;;;;;5.95;2.47;;;;;;;16.86;55.30;93008.97;524157;28;794;-41
2023/10/25 00:58:59;;;;;;;7.72;2.25;;;;;;;16.84;55.35;93009.59;522958;28;964;-41
2023/10/25 00:59:14;;;;;;;8.15;2.30;;;;;;;16.78;55.46;93006.44;522098;28;913;-41
2023/10/25 00:59:30;;;;;;;6.27;2.47;;;;;;;16.84;55.66;93017.22;519954;28;846;-41
2023/10/25 00:59:46;;;;;;;7.82;2.72;;;;;;;16.84;55.53;93009.59;520081;28;803;-40
2023/10/25 01:00:02;;;;;;;5.97;2.25;;;;;;;16.85;55.60;93015.91;519981;28;898;-41
2023/10/25 01:00:18;;;;;;;5.15;1.98;;;;;;;16.84;55.46;93012.38;521001;28;790;-41
2023/10/25 01:00:34;;;;;;;7.43;2.33;;;;;;;16.85;55.46;93010.34;519951;28;850;-41
2023/10/25 01:00:50;;;;;;;10.53;2.80;;;;;;;16.84;55.45;93012.38;520636;28;1044;-40
2023/10/25 01:01:05;;;;;;;10.50;2.75;;;;;;;16.85;55.47;93013.13;522829;28;865;-41
2023/10/25 01:01:26;;;;;;;9.73;2.87;;;;;;;16.84;55.53;93003.28;522007;28;938;-41
2023/10/25 01:01:41;;;;;;;6.47;2.70;;;;;;;16.74;55.55;92997.78;522031;28;1124;-40
2023/10/25 01:01:58;;;;;;;6.32;2.47;;;;;;;16.84;55.55;93003.28;521983;28;1975;-41
2023/10/25 01:02:14;;;;;;;6.80;2.22;;;;;;;16.73;55.47;92996.34;520045;28;886;-41
2023/10/25 01:02:30;;;;;;;6.82;2.25;;;;;;;16.79;55.77;93001.56;521390;28;798;-40
2023/10/25 01:02:45;;;;;;;5.00;2.27;;;;;;;16.78;55.81;93012.00;521422;28;943;-41
2023/10/25 01:03:07;;;;;;;5.05;2.05;;;;;;;16.78;55.86;93011.25;522060;28;1689;-41
2023/10/25 01:03:22;;;;;;;9.65;2.28;;;;;;;16.69;55.79;92990.50;524040;28;958;-41
2023/10/25 01:03:38;;;;;;;6.38;2.33;;;;;;;16.77;55.88;93012.59;524115;28;826;-40
2023/10/25 01:03:56;;;;;;;4.97;1.97;;;;;;;16.76;55.84;93003.50;524076;28;858;-41
2023/10/25 01:04:12;;;;;;;6.75;2.40;;;;;;;16.77;55.83;93004.22;524106;28;850;-41
2023/10/25 01:04:28;;;;;;;8.93;2.57;;;;;;;16.76;55.84;93009.09;524071;28;1047;-41
2023/10/25 01:04:43;;;;;;;8.15;2.70;;;;;;;16.77;55.75;93004.94;525931;28;906;-41
2023/10/25 01:04:59;;;;;;;5.45;2.55;;;;;;;16.78;55.74;93008.47;527900;28;881;-41
2023/10/25 01:05:15;;;;;;;6.10;2.13;;;;;;;16.77;55.80;93009.78;526196;28;841;-41
2023/10/25 01:05:30;;;;;;;7.95;2.28;;;;;;;16.76;55.78;93009.09;526119;28;968;-41
2023/10/25 01:05:46;;;;;;;5.73;2.37;;;;;;;16.77;55.67;93007.00;524062;28;909;-41
2023/10/25 01:06:04;;;;;;;3.20;2.08;;;;;;;16.77;55.93;93007.00;521979;28;1345;-41
2023/10/25 01:06:20;;;;;;;3.47;2.20;;;;;;;16.78;55.79;93011.25;521953;28;909;-41
2023/10/25 01:06:35;;;;;;;4.63;2.13;;;;;;;16.78;55.78;93014.06;522112;28;837;-41
2023/10/25 01:06:52;;;;;;;5.23;1.97;;;;;;;16.79;55.74;93015.50;522062;28;798;-41
2023/10/25 01:07:08;;;;;;;4.45;2.00;;;;;;;16.80;55.76;93016.97;523120;28;912;-41
2023/10/25 01:07:23;;;;;;;4.82;2.20;;;;;;;16.79;55.74;93012.72;524147;28;782;-41
2023/10/25 01:07:38;;;;;;;6.97;2.40;;;;;;;16.78;55.70;93017.56;525103;28;849;-41
2023/10/25 01:07:54;;;;;;;6.30;2.43;;;;;;;16.79;55.66;93018.28;527288;28;869;-41
2023/10/25 01:08:09;;;;;;;4.15;2.00;;;;;;;16.75;55.78;93009.66;528376;28;1110;-41
2023/10/25 01:08:25;;;;;;;4.93;2.10;;;;;;;16.77;55.84;93021.69;528411;28;952;-41
2023/10/25 01:08:40;;;;;;;8.82;2.78;;;;;;;16.79;55.69;93018.28;528438;28;1086;-41
2023/10/25 01:08:55;;;;;;;7.93;2.63;;;;;;;16.80;55.64;93025.34;526223;28;944;-41
2023/10/25 01:09:11;;;;;;;6.77;2.30;;;;;;;16.78;55.76;93014.06;526151;28;889;-41
2023/10/25 01:09:27;;;;;;;5.97;2.03;;;;;;;16.77;55.50;93016.09;526215;28;900;-41
2023/10/25 01:09:43;;;;;;;4.70;1.88;;;;;;;16.77;55.81;93010.53;526268;28;798;-41
2023/10/25 01:09:58;;;;;;;4.32;1.90;;;;;;;16.77;55.66;93016.09;526194;28;872;-41
2023/10/25 01:10:13;;;;;;;4.13;1.83;;;;;;;16.78;55.68;93019.63;524143;28;872;-41
2023/10/25 01:10:29;;;;;;;4.53;2.20;;;;;;;16.77;55.59;93015.38;524031;28;917;-41
2023/10/25 01:10:46;;;;;;;6.75;2.60;;;;;;;16.77;55.70;93016.09;524506;28;886;-41
2023/10/25 01:11:01;;;;;;;8.52;2.67;;;;;;;16.77;55.80;93010.53;526119;28;1010;-41
2023/10/25 01:11:16;;;;;;;7.93;2.35;;;;;;;16.78;55.85;93009.22;526212;28;798;-41
2023/10/25 01:11:32;;;;;;;6.47;1.93;;;;;;;16.78;55.66;93005.69;526250;28;828;-41
2023/10/25 01:11:48;;;;;;;9.15;2.50;;;;;;;16.80;55.65;93008.59;524106;28;850;-41
2023/10/25 01:12:04;;;;;;;12.73;2.80;;;;;;;16.80;55.72;93012.13;524159;28;919;-41
2023/10/25 01:12:19;;;;;;;9.80;2.58;;;;;;;16.80;55.56;93006.56;524040;28;944;-41
2023/10/25 01:12:35;;;;;;;6.85;2.88;;;;;;;16.80;55.72;93003.03;524176;28;818;-41
2023/10/25 01:12:50;;;;;;;7.43;2.60;;;;;;;16.81;55.71;93002.41;524509;28;920;-41
2023/10/25 01:13:05;;;;;;;6.80;2.67;;;;;;;16.73;55.76;92992.81;526304;28;774;-41
2023/10/25 01:13:21;;;;;;;7.43;3.05;;;;;;;16.80;55.81;93006.56;526175;28;892;-41
2023/10/25 01:13:37;;;;;;;7.13;2.63;;;;;;;16.80;55.66;93003.03;526774;28;924;-41
2023/10/25 01:13:53;;;;;;;5.90;2.20;;;;;;;16.74;55.72;92995.00;528514;28;829;-41
2023/10/25 01:14:08;;;;;;;5.77;2.07;;;;;;;16.75;55.40;92993.69;528472;28;833;-41
2023/10/25 01:14:27;;;;;;;5.70;2.03;;;;;;;16.78;55.58;92994.53;528468;28;861;-41
2023/10/25 01:14:42;;;;;;;3.08;1.88;;;;;;;16.81;55.60;92998.91;528437;28;839;-41
2023/10/25 01:14:57;;;;;;;3.23;1.70;;;;;;;16.80;55.75;93000.25;528511;28;785;-41
2023/10/25 01:15:13;;;;;;;4.32;1.92;;;;;;;16.77;55.61;92996.59;528405;28;1170;-41
2023/10/25 01:15:28;;;;;;;5.23;2.27;;;;;;;16.80;55.63;93000.25;528383;28;873;-41
2023/10/25 01:15:44;;;;;;;5.95;2.22;;;;;;;16.79;55.68;92993.94;528445;28;848;-41
2023/10/25 01:16:00;;;;;;;4.68;2.05;;;;;;;16.77;55.77;92991.00;528423;28;993;-41
2023/10/25 01:16:15;;;;;;;6.03;2.10;;;;;;;16.78;55.82;92988.97;528476;28;786;-41
2023/10/25 01:16:31;;;;;;;7.93;2.57;;;;;;;16.77;55.90;92987.50;528470;28;789;-41
2023/10/25 01:16:47;;;;;;;5.07;2.70;;;;;;;16.77;55.76;92984.69;528409;28;1138;-41
2023/10/25 01:17:03;;;;;;;5.57;2.47;;;;;;;16.74;55.88;92988.72;528490;28;841;-41